Back to Top

Language: 

My Weather Underground Personal Weather Station Historical Data with Graphs...

Delerius Weather Station Historical Data
Daily Summary for April 22, 2017 Units:  English    Metric   Both
« Previous Day
Next Day »
Daily Weekly Monthly Yearly Custom
  High: Low: Average:
Temperature: 60.1 °F 43.5 °F 50.2 °F
Dew Point: 45.3 °F 35.1 °F 41.2 °F
Humidity: 95 % 47 % 73 %
Wind Speed: 11.0 mph 0.0 mph 3.2 mph
Wind Gust: 20.0 mph - -
Wind:- - ESE
Pressure: 30.41 in 30.33 in -
Precipitation: 0.00 in    
Historical Graphs
 
 
Tabular Data for April 22, 2017
Time Temperature Dew Point Pressure Wind Wind Speed Wind Gust Humidity Rainfall Rate (Hourly) solar Conditions
00:02 49.5 °F 44.5 °F 30.38 in NW 7.0 mph 15.0 mph 83 % 0.00 in 0 W/m2
00:07 49.3 °F 44.6 °F 30.38 in NW 6.0 mph 15.0 mph 84 % 0.00 in 0 W/m2
00:12 49.3 °F 45.0 °F 30.38 in NW 5.0 mph 11.0 mph 85 % 0.00 in 0 W/m2
00:17 49.1 °F 45.1 °F 30.38 in NW 4.0 mph 11.0 mph 86 % 0.00 in 0 W/m2
00:22 48.9 °F 45.2 °F 30.39 in North 2.0 mph 8.0 mph 87 % 0.00 in 0 W/m2
00:27 48.7 °F 45.3 °F 30.39 in NE 2.0 mph 7.0 mph 88 % 0.00 in 0 W/m2
00:32 48.4 °F 45.3 °F 30.39 in NE 3.0 mph 8.0 mph 89 % 0.00 in 0 W/m2
00:37 47.8 °F 44.8 °F 30.39 in NE 4.0 mph 8.0 mph 89 % 0.00 in 0 W/m2
00:42 47.7 °F 44.9 °F 30.39 in NE 2.0 mph 6.0 mph 90 % 0.00 in 0 W/m2
00:47 47.5 °F 45.0 °F 30.39 in NE 2.0 mph 6.0 mph 91 % 0.00 in 0 W/m2
00:52 47.1 °F 44.6 °F 30.39 in NE 2.0 mph 6.0 mph 91 % 0.00 in 0 W/m2
00:57 47.1 °F 44.9 °F 30.39 in NNE 3.0 mph 6.0 mph 92 % 0.00 in 0 W/m2
01:02 46.9 °F 44.7 °F 30.39 in NNE 3.0 mph 6.0 mph 92 % 0.00 in 0 W/m2
01:07 46.8 °F 44.6 °F 30.39 in NNE 2.0 mph 6.0 mph 92 % 0.00 in 0 W/m2
01:12 46.8 °F 44.8 °F 30.39 in NE 1.0 mph 5.0 mph 93 % 0.00 in 0 W/m2
01:17 46.8 °F 44.8 °F 30.39 in NE 1.0 mph 4.0 mph 93 % 0.00 in 0 W/m2
01:22 46.8 °F 44.8 °F 30.39 in NE 1.0 mph 4.0 mph 93 % 0.00 in 0 W/m2
01:27 46.8 °F 44.8 °F 30.39 in ENE 1.0 mph 3.0 mph 93 % 0.00 in 0 W/m2
01:32 46.6 °F 44.7 °F 30.39 in ENE 1.0 mph 4.0 mph 93 % 0.00 in 0 W/m2
01:37 46.6 °F 44.7 °F 30.39 in East 1.0 mph 4.0 mph 93 % 0.00 in 0 W/m2
01:42 46.6 °F 44.7 °F 30.39 in Calm   4.0 mph 93 % 0.00 in 0 W/m2
01:47 46.6 °F 44.7 °F 30.39 in ENE 1.0 mph 4.0 mph 93 % 0.00 in 0 W/m2
01:52 46.2 °F 44.3 °F 30.39 in ENE 1.0 mph 4.0 mph 93 % 0.00 in 0 W/m2
01:58 46.2 °F 44.3 °F 30.39 in Calm   2.0 mph 93 % 0.00 in 0 W/m2
02:03 46.2 °F 44.3 °F 30.39 in Calm   4.0 mph 93 % 0.00 in 0 W/m2
02:08 46.2 °F 44.6 °F 30.39 in ENE 1.0 mph 4.0 mph 94 % 0.00 in 0 W/m2
02:13 46.0 °F 44.4 °F 30.39 in ENE 1.0 mph 4.0 mph 94 % 0.00 in 0 W/m2
02:18 46.0 °F 44.4 °F 30.38 in Calm   4.0 mph 94 % 0.00 in 0 W/m2
02:22 46.0 °F 44.4 °F 30.38 in ESE 1.0 mph 4.0 mph 94 % 0.00 in 0 W/m2
02:27 46.0 °F 44.4 °F 30.38 in Calm   2.0 mph 94 % 0.00 in 0 W/m2
02:32 46.0 °F 44.4 °F 30.38 in Calm   2.0 mph 94 % 0.00 in 0 W/m2
02:37 46.0 °F 44.4 °F 30.38 in Calm   2.0 mph 94 % 0.00 in 0 W/m2
02:42 46.0 °F 44.4 °F 30.38 in Calm   2.0 mph 94 % 0.00 in 0 W/m2
02:47 46.0 °F 44.4 °F 30.38 in Calm   1.0 mph 94 % 0.00 in 0 W/m2
02:52 46.0 °F 44.4 °F 30.38 in Calm   4.0 mph 94 % 0.00 in 0 W/m2
02:57 45.9 °F 44.2 °F 30.38 in Calm   4.0 mph 94 % 0.00 in 0 W/m2
03:02 45.9 °F 44.2 °F 30.38 in Calm   2.0 mph 94 % 0.00 in 0 W/m2
03:07 45.9 °F 44.2 °F 30.38 in Calm   1.0 mph 94 % 0.00 in 0 W/m2
03:12 45.9 °F 44.2 °F 30.38 in Calm   1.0 mph 94 % 0.00 in 0 W/m2
03:17 45.9 °F 44.2 °F 30.38 in Calm   1.0 mph 94 % 0.00 in 0 W/m2
03:22 45.9 °F 44.5 °F 30.38 in ESE 1.0 mph 3.0 mph 95 % 0.00 in 0 W/m2
03:27 45.9 °F 44.5 °F 30.38 in ESE 1.0 mph 3.0 mph 95 % 0.00 in 0 W/m2
03:32 45.9 °F 44.2 °F 30.38 in Calm   4.0 mph 94 % 0.00 in 0 W/m2
03:37 45.9 °F 44.2 °F 30.38 in Calm   4.0 mph 94 % 0.00 in 0 W/m2
03:42 45.9 °F 44.5 °F 30.37 in Calm   3.0 mph 95 % 0.00 in 0 W/m2
03:47 45.9 °F 44.5 °F 30.37 in Calm   3.0 mph 95 % 0.00 in 0 W/m2
03:52 45.9 °F 44.5 °F 30.38 in Calm   1.0 mph 95 % 0.00 in 0 W/m2
03:57 45.9 °F 44.5 °F 30.38 in Calm     95 % 0.00 in 0 W/m2
04:02 45.9 °F 44.5 °F 30.37 in Calm     95 % 0.00 in 0 W/m2
04:07 45.7 °F 44.3 °F 30.38 in Calm     95 % 0.00 in 0 W/m2
04:12 45.9 °F 44.5 °F 30.37 in Calm     95 % 0.00 in 0 W/m2
04:17 45.9 °F 44.5 °F 30.37 in Calm     95 % 0.00 in 0 W/m2
04:22 45.9 °F 44.5 °F 30.37 in Calm     95 % 0.00 in 0 W/m2
04:27 45.9 °F 44.5 °F 30.37 in Calm     95 % 0.00 in 0 W/m2
04:32 45.9 °F 44.5 °F 30.37 in Calm     95 % 0.00 in 0 W/m2
04:37 45.9 °F 44.5 °F 30.37 in Calm     95 % 0.00 in 0 W/m2
04:42 45.9 °F 44.2 °F 30.37 in Calm     94 % 0.00 in 0 W/m2
04:47 45.9 °F 44.5 °F 30.37 in Calm     95 % 0.00 in 0 W/m2
04:52 46.0 °F 44.7 °F 30.37 in Calm     95 % 0.00 in 0 W/m2
04:57 46.0 °F 44.4 °F 30.37 in Calm     94 % 0.00 in 0 W/m2
05:02 46.0 °F 44.4 °F 30.37 in Calm     94 % 0.00 in 0 W/m2
05:07 45.9 °F 44.2 °F 30.37 in Calm     94 % 0.00 in 0 W/m2
05:30 45.8 °F 44.2 °F 30.37 in ESE 2.0 mph 2.0 mph 94 % 0.00 in 0 W/m2
05:45 45.3 °F 43.4 °F 30.37 in WNW 5.0 mph 5.0 mph 93 % 0.00 in 0 W/m2
06:00 44.7 °F 42.8 °F 30.38 in WNW 6.0 mph 6.0 mph 93 % 0.00 in 3 W/m2
06:15 44.5 °F 42.6 °F 30.38 in WNW 7.0 mph 7.0 mph 93 % 0.00 in 11 W/m2
06:30 44.2 °F 41.7 °F 30.38 in NW 9.0 mph 9.0 mph 91 % 0.00 in 19 W/m2
06:45 44.1 °F 41.4 °F 30.38 in NW 11.0 mph 11.0 mph 90 % 0.00 in 23 W/m2
07:00 44.0 °F 41.0 °F 30.39 in NW 8.0 mph 8.0 mph 89 % 0.00 in 43 W/m2
07:15 44.3 °F 41.6 °F 30.39 in NW 9.0 mph 9.0 mph 90 % 0.00 in 123 W/m2
07:30 45.7 °F 41.8 °F 30.39 in NW 10.0 mph 10.0 mph 86 % 0.00 in 177 W/m2
07:45 46.8 °F 42.2 °F 30.39 in NW 9.0 mph 9.0 mph 84 % 0.00 in 135 W/m2
08:00 47.2 °F 42.0 °F 30.40 in NNW 9.0 mph 9.0 mph 82 % 0.00 in 129 W/m2
08:15 47.1 °F 41.9 °F 30.40 in NNW 9.0 mph 9.0 mph 82 % 0.00 in 141 W/m2
09:56 50.7 °F 43.4 °F 30.41 in NNW 2.0 mph 2.0 mph 76 % 0.00 in 279 W/m2
10:07 51.1 °F 43.8 °F 30.41 in NNW 2.0 mph 2.0 mph 76 % 0.00 in 770 W/m2
10:12 51.8 °F 43.8 °F 30.41 in North 4.0 mph 7.0 mph 74 % 0.00 in 765 W/m2
10:17 52.0 °F 43.9 °F 30.41 in North 3.0 mph 8.0 mph 74 % 0.00 in 193 W/m2
10:22 51.8 °F 43.4 °F 30.40 in North 4.0 mph 8.0 mph 73 % 0.00 in 185 W/m2
10:27 51.6 °F 43.2 °F 30.40 in NNW 3.0 mph 7.0 mph 73 % 0.00 in 236 W/m2
10:32 51.6 °F 43.6 °F 30.41 in NNW 3.0 mph 8.0 mph 74 % 0.00 in 853 W/m2
10:33 51.6 °F 43.2 °F 30.41 in NNW 3.0 mph 8.0 mph 73 % 0.00 in 853 W/m2
10:38 52.0 °F 43.9 °F 30.41 in North 4.0 mph 9.0 mph 74 % 0.00 in 538 W/m2
10:43 52.3 °F 43.9 °F 30.41 in NNW 4.0 mph 9.0 mph 73 % 0.00 in 265 W/m2
10:48 52.3 °F 43.6 °F 30.41 in NNW 4.0 mph 9.0 mph 72 % 0.00 in 223 W/m2
10:53 52.2 °F 43.0 °F 30.41 in NNW 4.0 mph 9.0 mph 71 % 0.00 in 232 W/m2
10:58 52.2 °F 43.4 °F 30.41 in NNW 4.0 mph 8.0 mph 72 % 0.00 in 325 W/m2
11:03 52.0 °F 43.2 °F 30.41 in NNW 4.0 mph 9.0 mph 72 % 0.00 in 967 W/m2
11:08 52.3 °F 43.6 °F 30.41 in North 5.0 mph 10.0 mph 72 % 0.00 in 986 W/m2
11:13 52.5 °F 43.4 °F 30.41 in North 5.0 mph 10.0 mph 71 % 0.00 in 272 W/m2
11:18 52.3 °F 42.8 °F 30.41 in North 5.0 mph 9.0 mph 70 % 0.00 in 295 W/m2
11:23 52.3 °F 43.2 °F 30.41 in NNE 4.0 mph 10.0 mph 71 % 0.00 in 392 W/m2
11:28 52.3 °F 43.2 °F 30.41 in North 4.0 mph 10.0 mph 71 % 0.00 in 287 W/m2
11:33 52.5 °F 43.0 °F 30.41 in North 4.0 mph 9.0 mph 70 % 0.00 in 904 W/m2
11:38 52.9 °F 42.6 °F 30.41 in North 4.0 mph 11.0 mph 68 % 0.00 in 339 W/m2
11:43 52.9 °F 42.2 °F 30.41 in North 4.0 mph 11.0 mph 67 % 0.00 in 974 W/m2
11:48 53.1 °F 42.4 °F 30.41 in NNE 5.0 mph 11.0 mph 67 % 0.00 in 192 W/m2
11:53 52.5 °F 42.3 °F 30.40 in NE 5.0 mph 11.0 mph 68 % 0.00 in 861 W/m2
11:58 52.5 °F 42.6 °F 30.40 in ENE 5.0 mph 10.0 mph 69 % 0.00 in 831 W/m2
12:03 52.5 °F 42.3 °F 30.40 in NE 5.0 mph 11.0 mph 68 % 0.00 in 833 W/m2
12:08 52.5 °F 43.0 °F 30.39 in NE 5.0 mph 11.0 mph 70 % 0.00 in 826 W/m2
12:13 52.9 °F 42.6 °F 30.39 in ENE 3.0 mph 9.0 mph 68 % 0.00 in 833 W/m2
12:18 53.8 °F 42.7 °F 30.39 in ENE 3.0 mph 8.0 mph 66 % 0.00 in 838 W/m2
12:23 53.6 °F 42.1 °F 30.39 in East 4.0 mph 8.0 mph 65 % 0.00 in 912 W/m2
12:28 53.8 °F 42.7 °F 30.39 in ESE 4.0 mph 9.0 mph 66 % 0.00 in 965 W/m2
12:33 54.0 °F 42.5 °F 30.39 in East 4.0 mph 9.0 mph 65 % 0.00 in 1023 W/m2
12:38 54.3 °F 42.8 °F 30.39 in ENE 2.0 mph 7.0 mph 65 % 0.00 in 1074 W/m2
12:43 54.9 °F 42.5 °F 30.39 in NE 4.0 mph 13.0 mph 63 % 0.00 in 225 W/m2
12:48 54.1 °F 41.8 °F 30.39 in NE 5.0 mph 13.0 mph 63 % 0.00 in 139 W/m2
12:53 53.6 °F 40.5 °F 30.39 in NE 4.0 mph 9.0 mph 61 % 0.00 in 155 W/m2
12:59 53.2 °F 41.0 °F 30.38 in NE 2.0 mph 9.0 mph 63 % 0.00 in 197 W/m2
13:04 53.6 °F 41.3 °F 30.38 in NNE 1.0 mph 7.0 mph 63 % 0.00 in 1048 W/m2
13:09 54.1 °F 41.0 °F 30.38 in NNE 2.0 mph 7.0 mph 61 % 0.00 in 1067 W/m2
13:14 54.1 °F 41.4 °F 30.38 in NNE 1.0 mph 7.0 mph 62 % 0.00 in 269 W/m2
13:19 54.3 °F 42.0 °F 30.38 in North 3.0 mph 10.0 mph 63 % 0.00 in 255 W/m2
13:24 54.1 °F 41.8 °F 30.38 in NNE 5.0 mph 10.0 mph 63 % 0.00 in 165 W/m2
13:29 53.8 °F 42.3 °F 30.38 in NE 5.0 mph 10.0 mph 65 % 0.00 in 935 W/m2
13:34 54.0 °F 42.1 °F 30.38 in NE 4.0 mph 9.0 mph 64 % 0.00 in 271 W/m2
13:39 54.1 °F 42.2 °F 30.37 in ENE 4.0 mph 10.0 mph 64 % 0.00 in 991 W/m2
13:44 54.5 °F 42.2 °F 30.37 in ENE 3.0 mph 10.0 mph 63 % 0.00 in 401 W/m2
13:49 54.7 °F 41.5 °F 30.37 in ESE 3.0 mph 8.0 mph 61 % 0.00 in 793 W/m2
13:54 55.2 °F 42.0 °F 30.37 in ESE 2.0 mph 8.0 mph 61 % 0.00 in 854 W/m2
13:59 55.6 °F 41.5 °F 30.37 in East 2.0 mph 9.0 mph 59 % 0.00 in 276 W/m2
14:04 55.8 °F 41.2 °F 30.37 in ESE 3.0 mph 9.0 mph 58 % 0.00 in 886 W/m2
14:09 56.1 °F 41.1 °F 30.37 in East 2.0 mph 8.0 mph 57 % 0.00 in 900 W/m2
14:14 56.5 °F 40.5 °F 30.36 in NE 2.0 mph 7.0 mph 55 % 0.00 in 893 W/m2
14:19 56.7 °F 41.1 °F 30.36 in NE 3.0 mph 7.0 mph 56 % 0.00 in 881 W/m2
14:24 57.4 °F 42.3 °F 30.36 in NNE 4.0 mph 11.0 mph 57 % 0.00 in 970 W/m2
14:29 57.4 °F 41.3 °F 30.36 in NE 4.0 mph 11.0 mph 55 % 0.00 in 988 W/m2
14:34 57.6 °F 41.5 °F 30.36 in NNE 4.0 mph 10.0 mph 55 % 0.00 in 279 W/m2
14:39 57.4 °F 40.9 °F 30.36 in NNE 3.0 mph 10.0 mph 54 % 0.00 in 220 W/m2
14:44 57.2 °F 41.2 °F 30.36 in ENE 2.0 mph 7.0 mph 55 % 0.00 in 199 W/m2
14:49 57.0 °F 40.5 °F 30.35 in East 3.0 mph 7.0 mph 54 % 0.00 in 671 W/m2
14:54 56.8 °F 40.4 °F 30.35 in ENE 3.0 mph 7.0 mph 54 % 0.00 in 355 W/m2
14:59 57.4 °F 40.9 °F 30.35 in NNW 2.0 mph 8.0 mph 54 % 0.00 in 355 W/m2
15:04 57.4 °F 40.9 °F 30.35 in NNE 3.0 mph 11.0 mph 54 % 0.00 in 285 W/m2
15:09 57.0 °F 41.5 °F 30.35 in NE 4.0 mph 11.0 mph 56 % 0.00 in 246 W/m2
15:14 56.8 °F 40.8 °F 30.35 in NE 3.0 mph 11.0 mph 55 % 0.00 in 232 W/m2
15:19 56.5 °F 41.0 °F 30.35 in NE 2.0 mph 7.0 mph 56 % 0.00 in 805 W/m2
15:25 56.3 °F 40.8 °F 30.34 in NNE 3.0 mph 7.0 mph 56 % 0.00 in 204 W/m2
15:30 56.5 °F 40.5 °F 30.34 in NE 3.0 mph 8.0 mph 55 % 0.00 in 204 W/m2
15:35 56.5 °F 40.0 °F 30.34 in NE 2.0 mph 8.0 mph 54 % 0.00 in 724 W/m2
15:40 56.7 °F 39.7 °F 30.34 in NE 2.0 mph 6.0 mph 53 % 0.00 in 677 W/m2
15:45 57.6 °F 40.1 °F 30.34 in North 1.0 mph 4.0 mph 52 % 0.00 in 686 W/m2
15:50 58.3 °F 40.2 °F 30.34 in NW 1.0 mph 6.0 mph 51 % 0.00 in 149 W/m2
15:55 58.5 °F 39.9 °F 30.33 in NW 2.0 mph 7.0 mph 50 % 0.00 in 239 W/m2
16:00 59.0 °F 39.3 °F 30.34 in NW 3.0 mph 9.0 mph 48 % 0.00 in 679 W/m2
16:05 59.5 °F 39.3 °F 30.33 in NW 5.0 mph 12.0 mph 47 % 0.00 in 679 W/m2
16:10 59.7 °F 39.4 °F 30.33 in NW 5.0 mph 12.0 mph 47 % 0.00 in 687 W/m2
16:15 60.1 °F 40.3 °F 30.33 in NNW 5.0 mph 10.0 mph 48 % 0.00 in 740 W/m2
16:20 59.0 °F 40.4 °F 30.33 in North 6.0 mph 10.0 mph 50 % 0.00 in 257 W/m2
16:25 57.9 °F 40.4 °F 30.33 in NE 6.0 mph 11.0 mph 52 % 0.00 in 712 W/m2
16:30 57.7 °F 40.2 °F 30.33 in NE 6.0 mph 11.0 mph 52 % 0.00 in 728 W/m2
16:35 57.4 °F 40.4 °F 30.33 in NE 5.0 mph 9.0 mph 53 % 0.00 in 148 W/m2
16:40 56.8 °F 39.9 °F 30.33 in NE 5.0 mph 9.0 mph 53 % 0.00 in 137 W/m2
16:45 56.5 °F 40.0 °F 30.33 in NE 3.0 mph 8.0 mph 54 % 0.00 in 162 W/m2
16:50 56.1 °F 40.2 °F 30.33 in East 3.0 mph 9.0 mph 55 % 0.00 in 269 W/m2
16:51 56.1 °F 40.2 °F 30.33 in East 3.0 mph 9.0 mph 55 % 0.00 in 269 W/m2
16:56 56.3 °F 40.8 °F 30.33 in ESE 4.0 mph 9.0 mph 56 % 0.00 in 241 W/m2
17:01 56.3 °F 40.3 °F 30.33 in ESE 6.0 mph 11.0 mph 55 % 0.00 in 183 W/m2
17:06 55.9 °F 40.0 °F 30.33 in ESE 6.0 mph 11.0 mph 55 % 0.00 in 267 W/m2
17:11 56.1 °F 40.2 °F 30.33 in ESE 5.0 mph 12.0 mph 55 % 0.00 in 156 W/m2
17:16 55.9 °F 40.0 °F 30.33 in ESE 4.0 mph 12.0 mph 55 % 0.00 in 151 W/m2
17:21 55.8 °F 40.7 °F 30.33 in ESE 5.0 mph 9.0 mph 57 % 0.00 in 153 W/m2
17:26 55.8 °F 40.3 °F 30.33 in ESE 5.0 mph 9.0 mph 56 % 0.00 in 123 W/m2
17:31 55.8 °F 40.7 °F 30.33 in ESE 4.0 mph 8.0 mph 57 % 0.00 in 109 W/m2
17:36 55.6 °F 40.6 °F 30.33 in ESE 4.0 mph 7.0 mph 57 % 0.00 in 102 W/m2
17:41 55.6 °F 40.6 °F 30.33 in ESE 3.0 mph 7.0 mph 57 % 0.00 in 109 W/m2
17:46 55.4 °F 40.0 °F 30.33 in East 3.0 mph 7.0 mph 56 % 0.00 in 102 W/m2
17:51 55.0 °F 39.6 °F 30.33 in ENE 4.0 mph 7.0 mph 56 % 0.00 in 121 W/m2
17:56 54.9 °F 39.9 °F 30.33 in ENE 3.0 mph 7.0 mph 57 % 0.00 in 141 W/m2
18:01 54.7 °F 39.7 °F 30.33 in ENE 3.0 mph 6.0 mph 57 % 0.00 in 125 W/m2
18:06 54.7 °F 39.7 °F 30.33 in ENE 3.0 mph 8.0 mph 57 % 0.00 in 114 W/m2
18:11 54.5 °F 39.6 °F 30.33 in ENE 4.0 mph 8.0 mph 57 % 0.00 in 83 W/m2
18:16 54.3 °F 39.4 °F 30.33 in ENE 3.0 mph 7.0 mph 57 % 0.00 in 67 W/m2
18:21 54.3 °F 39.8 °F 30.33 in ENE 1.0 mph 5.0 mph 58 % 0.00 in 69 W/m2
18:26 54.1 °F 39.2 °F 30.33 in ENE 1.0 mph 5.0 mph 57 % 0.00 in 63 W/m2
18:31 54.1 °F 40.1 °F 30.33 in East 2.0 mph 7.0 mph 59 % 0.00 in 74 W/m2
18:37 54.1 °F 40.1 °F 30.33 in East 2.0 mph 7.0 mph 59 % 0.00 in 76 W/m2
18:42 54.0 °F 39.9 °F 30.33 in East 3.0 mph 8.0 mph 59 % 0.00 in 74 W/m2
18:47 53.8 °F 39.8 °F 30.33 in ENE 4.0 mph 9.0 mph 59 % 0.00 in 62 W/m2
18:52 53.4 °F 39.4 °F 30.33 in ENE 5.0 mph 9.0 mph 59 % 0.00 in 69 W/m2
18:57 53.2 °F 39.7 °F 30.33 in ENE 4.0 mph 8.0 mph 60 % 0.00 in 77 W/m2
19:02 53.2 °F 38.8 °F 30.34 in NE 5.0 mph 14.0 mph 58 % 0.00 in 58 W/m2
19:07 52.9 °F 38.5 °F 30.34 in NE 7.0 mph 14.0 mph 58 % 0.00 in 51 W/m2
19:12 52.3 °F 39.3 °F 30.34 in ENE 7.0 mph 18.0 mph 61 % 0.00 in 40 W/m2
19:17 51.3 °F 39.5 °F 30.34 in ENE 8.0 mph 18.0 mph 64 % 0.00 in 33 W/m2
19:22 50.5 °F 39.6 °F 30.35 in ENE 6.0 mph 13.0 mph 66 % 0.00 in 26 W/m2
19:27 49.8 °F 38.9 °F 30.35 in ENE 6.0 mph 13.0 mph 66 % 0.00 in 23 W/m2
19:32 49.1 °F 38.6 °F 30.35 in ENE 7.0 mph 13.0 mph 67 % 0.00 in 25 W/m2
19:37 48.7 °F 38.6 °F 30.35 in East 7.0 mph 14.0 mph 68 % 0.00 in 26 W/m2
19:42 48.4 °F 39.0 °F 30.35 in East 6.0 mph 13.0 mph 70 % 0.00 in 19 W/m2
19:47 48.0 °F 39.1 °F 30.35 in East 6.0 mph 13.0 mph 71 % 0.00 in 18 W/m2
19:52 47.8 °F 38.9 °F 30.35 in East 6.0 mph 20.0 mph 71 % 0.00 in 16 W/m2
19:57 47.7 °F 39.1 °F 30.35 in East 6.0 mph 20.0 mph 72 % 0.00 in 12 W/m2
19:58 47.7 °F 39.1 °F 30.35 in East 6.0 mph 20.0 mph 72 % 0.00 in 11 W/m2
20:03 47.5 °F 38.9 °F 30.36 in East 5.0 mph 10.0 mph 72 % 0.00 in 7 W/m2
20:08 47.3 °F 39.1 °F 30.36 in East 6.0 mph 11.0 mph 73 % 0.00 in 5 W/m2
20:13 47.1 °F 38.9 °F 30.36 in East 6.0 mph 11.0 mph 73 % 0.00 in 0 W/m2
20:19 47.1 °F 38.9 °F 30.36 in East 5.0 mph 10.0 mph 73 % 0.00 in 0 W/m2
20:24 46.9 °F 38.4 °F 30.37 in East 5.0 mph 10.0 mph 72 % 0.00 in 0 W/m2
20:29 46.9 °F 38.4 °F 30.37 in East 5.0 mph 10.0 mph 72 % 0.00 in 0 W/m2
20:34 46.8 °F 38.2 °F 30.37 in East 4.0 mph 10.0 mph 72 % 0.00 in 0 W/m2
20:39 46.8 °F 38.2 °F 30.37 in East 4.0 mph 10.0 mph 72 % 0.00 in 0 W/m2
20:44 46.8 °F 38.2 °F 30.37 in ESE 4.0 mph 10.0 mph 72 % 0.00 in 0 W/m2
20:49 46.6 °F 38.0 °F 30.37 in ESE 3.0 mph 9.0 mph 72 % 0.00 in 0 W/m2
20:54 46.6 °F 38.0 °F 30.37 in East 2.0 mph 7.0 mph 72 % 0.00 in 0 W/m2
20:59 46.6 °F 38.0 °F 30.38 in ESE 2.0 mph 6.0 mph 72 % 0.00 in 0 W/m2
21:04 46.6 °F 37.7 °F 30.38 in ESE 3.0 mph 8.0 mph 71 % 0.00 in 0 W/m2
21:09 46.6 °F 37.7 °F 30.38 in ESE 3.0 mph 8.0 mph 71 % 0.00 in 0 W/m2
21:14 46.4 °F 37.5 °F 30.38 in ESE 4.0 mph 7.0 mph 71 % 0.00 in 0 W/m2
21:19 46.6 °F 37.3 °F 30.38 in SE 4.0 mph 7.0 mph 70 % 0.00 in 0 W/m2
21:24 46.6 °F 37.3 °F 30.38 in SE 4.0 mph 8.0 mph 70 % 0.00 in 0 W/m2
21:29 46.6 °F 37.3 °F 30.38 in SE 4.0 mph 8.0 mph 70 % 0.00 in 0 W/m2
21:34 46.6 °F 37.7 °F 30.38 in SE 3.0 mph 6.0 mph 71 % 0.00 in 0 W/m2
21:39 46.6 °F 37.7 °F 30.39 in SSE 2.0 mph 5.0 mph 71 % 0.00 in 0 W/m2
21:40 46.6 °F 37.7 °F 30.39 in SSE 2.0 mph 5.0 mph 71 % 0.00 in 0 W/m2
21:45 46.6 °F 37.7 °F 30.39 in SSE 2.0 mph 6.0 mph 71 % 0.00 in 0 W/m2
21:50 46.6 °F 37.3 °F 30.39 in SE 3.0 mph 7.0 mph 70 % 0.00 in 0 W/m2
21:55 46.4 °F 37.1 °F 30.39 in SE 4.0 mph 9.0 mph 70 % 0.00 in 0 W/m2
22:00 46.2 °F 37.0 °F 30.39 in SE 5.0 mph 9.0 mph 70 % 0.00 in 0 W/m2
22:05 46.2 °F 36.6 °F 30.39 in SE 5.0 mph 9.0 mph 69 % 0.00 in 0 W/m2
22:10 46.0 °F 36.4 °F 30.39 in SSE 4.0 mph 8.0 mph 69 % 0.00 in 0 W/m2
22:15 46.0 °F 36.8 °F 30.39 in SSE 3.0 mph 7.0 mph 70 % 0.00 in 0 W/m2
22:20 45.9 °F 36.3 °F 30.39 in SE 4.0 mph 7.0 mph 69 % 0.00 in 0 W/m2
22:25 45.9 °F 36.3 °F 30.39 in SSE 4.0 mph 8.0 mph 69 % 0.00 in 0 W/m2
22:30 45.7 °F 36.1 °F 30.39 in SSE 3.0 mph 7.0 mph 69 % 0.00 in 0 W/m2
22:35 45.3 °F 35.7 °F 30.39 in SSE 4.0 mph 8.0 mph 69 % 0.00 in 0 W/m2
22:40 45.3 °F 35.7 °F 30.39 in SSE 4.0 mph 9.0 mph 69 % 0.00 in 0 W/m2
22:45 45.0 °F 35.4 °F 30.38 in SSE 4.0 mph 9.0 mph 69 % 0.00 in 0 W/m2
22:50 44.8 °F 35.2 °F 30.38 in SSE 4.0 mph 8.0 mph 69 % 0.00 in 0 W/m2
22:55 44.8 °F 35.2 °F 30.38 in SSE 3.0 mph 6.0 mph 69 % 0.00 in 0 W/m2
23:00 44.6 °F 35.4 °F 30.38 in SSE 2.0 mph 5.0 mph 70 % 0.00 in 0 W/m2
23:05 44.4 °F 35.2 °F 30.38 in SSE 1.0 mph 4.0 mph 70 % 0.00 in 0 W/m2
23:10 44.4 °F 35.2 °F 30.38 in SSE 1.0 mph 4.0 mph 70 % 0.00 in 0 W/m2
23:11 44.4 °F 35.2 °F 30.38 in SSE 1.0 mph 4.0 mph 70 % 0.00 in 0 W/m2
23:16 44.2 °F 35.1 °F 30.38 in Calm   4.0 mph 70 % 0.00 in 0 W/m2
23:21 44.1 °F 35.3 °F 30.38 in Calm   2.0 mph 71 % 0.00 in 0 W/m2
23:26 44.1 °F 35.3 °F 30.38 in SSE 1.0 mph 5.0 mph 71 % 0.00 in 0 W/m2
23:31 43.9 °F 35.1 °F 30.38 in SSE 2.0 mph 5.0 mph 71 % 0.00 in 0 W/m2
23:36 43.9 °F 35.1 °F 30.38 in SSE 2.0 mph 5.0 mph 71 % 0.00 in 0 W/m2
23:41 43.9 °F 35.4 °F 30.38 in South 1.0 mph 5.0 mph 72 % 0.00 in 0 W/m2
23:46 43.7 °F 35.3 °F 30.38 in South 1.0 mph 4.0 mph 72 % 0.00 in 0 W/m2
23:51 43.5 °F 35.4 °F 30.38 in South 2.0 mph 5.0 mph 73 % 0.00 in 0 W/m2
23:56 43.5 °F 35.4 °F 30.38 in South 1.0 mph 5.0 mph 73 % 0.00 in 0 W/m2
Delerius-Weather
Compliments of Weather Underground - 2 mb

Data updates at regular intervals.